createdAt,value
2023-03-13T00:00:21.752Z,67.01
2023-03-13T00:01:22.339Z,65.38
2023-03-13T00:02:21.747Z,66.52
2023-03-13T00:03:21.667Z,66.70
2023-03-13T00:04:21.641Z,64.84
2023-03-13T00:05:21.759Z,65.03
2023-03-13T01:59:32.254Z,27.46
2023-03-13T02:00:32.181Z,28.93
2023-03-13T02:01:32.333Z,27.51
2023-03-13T02:02:32.168Z,29.00
2023-03-13T02:03:32.124Z,26.47
2023-03-13T02:04:32.083Z,28.05
2023-03-13T02:05:32.060Z,26.80
2023-03-13T02:06:32.026Z,29.90
2023-03-13T02:07:31.996Z,26.96
2023-03-13T02:08:31.968Z,25.51
2023-03-13T02:09:31.946Z,29.17
2023-03-13T02:10:31.921Z,28.25
2023-03-13T02:11:31.887Z,26.94
2023-03-13T02:12:31.852Z,26.46
2023-03-13T02:13:31.824Z,27.93
2023-03-13T02:14:31.800Z,26.93
2023-03-13T02:15:31.792Z,27.79
2023-03-13T02:16:31.874Z,30.23
2023-03-13T02:17:31.706Z,28.25
2023-03-13T02:18:31.687Z,25.00
2023-03-13T02:19:31.653Z,27.61
2023-03-13T02:20:31.630Z,29.43
2023-03-13T02:21:31.606Z,25.09
2023-03-13T02:22:31.581Z,26.05
2023-03-13T02:23:31.565Z,29.04
2023-03-13T02:24:31.527Z,30.38
2023-03-13T02:25:31.510Z,28.40
2023-03-13T02:26:31.486Z,28.24
2023-03-13T02:27:31.462Z,29.30
2023-03-13T02:28:31.440Z,29.69
2023-03-13T02:29:31.402Z,28.78
2023-03-13T02:30:31.420Z,32.39
2023-03-13T02:31:31.589Z,32.02
2023-03-13T02:32:31.373Z,26.52
2023-03-13T02:33:31.285Z,29.46
2023-03-13T02:34:31.265Z,31.55
2023-03-13T02:35:31.870Z,28.75
2023-03-13T02:36:31.212Z,30.46
2023-03-13T02:37:31.180Z,28.47
2023-03-13T02:38:31.162Z,32.03
2023-03-13T02:39:31.140Z,33.07
2023-03-13T02:40:31.118Z,29.49
2023-03-13T02:41:31.087Z,31.50
2023-03-13T02:42:31.065Z,30.31
2023-03-13T02:43:31.054Z,29.63
2023-03-13T02:44:31.014Z,32.18
2023-03-13T02:45:30.989Z,32.67
2023-03-13T02:46:31.025Z,32.41
2023-03-13T02:47:30.981Z,29.73
2023-03-13T02:48:30.918Z,30.07
2023-03-13T02:49:30.895Z,31.76
2023-03-13T02:50:30.871Z,30.20
2023-03-13T02:51:30.849Z,31.98
2023-03-13T02:52:30.824Z,28.30
2023-03-13T02:53:30.808Z,30.09
2023-03-13T02:54:30.790Z,30.64
2023-03-13T02:55:30.773Z,28.56
2023-03-13T02:56:30.758Z,30.36
2023-03-13T02:57:30.734Z,29.22
2023-03-13T02:58:33.615Z,29.40
2023-03-13T02:59:30.680Z,29.79
2023-03-13T03:00:30.707Z,30.38
2023-03-13T03:01:30.638Z,31.26
2023-03-13T03:02:30.630Z,33.25
2023-03-13T03:03:30.636Z,34.49
2023-03-13T03:04:30.576Z,32.10
2023-03-13T03:05:30.556Z,30.27
2023-03-13T03:06:30.536Z,30.00
2023-03-13T03:07:30.517Z,27.72
2023-03-13T03:08:30.495Z,31.45
2023-03-13T03:09:30.484Z,30.85
2023-03-13T03:10:30.454Z,29.93
2023-03-13T03:11:30.435Z,32.44
2023-03-13T03:12:30.428Z,30.59
2023-03-13T03:13:30.394Z,30.27
2023-03-13T03:14:30.376Z,26.70
2023-03-13T03:15:30.359Z,32.02
2023-03-13T03:16:30.351Z,30.32
2023-03-13T03:17:30.314Z,30.95
2023-03-13T03:18:30.290Z,30.27
2023-03-13T03:19:30.302Z,30.77
2023-03-13T03:20:30.248Z,30.16
2023-03-13T03:21:30.266Z,31.48
2023-03-13T03:22:30.202Z,33.32
2023-03-13T03:23:30.167Z,31.40
2023-03-13T03:24:30.144Z,31.53
2023-03-13T03:25:30.118Z,29.67
2023-03-13T03:26:30.095Z,27.89
2023-03-13T03:27:30.068Z,30.67
2023-03-13T03:28:30.057Z,29.69
2023-03-13T03:29:30.041Z,27.35
2023-03-13T03:30:30.021Z,29.07
2023-03-13T03:31:30.080Z,28.22
2023-03-13T03:32:30.019Z,28.69
2023-03-13T03:33:29.964Z,28.83
2023-03-13T03:34:29.933Z,30.96
2023-03-13T03:35:30.077Z,27.46
2023-03-13T03:36:29.889Z,30.01
2023-03-13T03:37:30.046Z,31.38
2023-03-13T03:38:29.845Z,31.60
2023-03-13T03:39:29.822Z,28.70
2023-03-13T03:40:29.799Z,31.24
2023-03-13T03:41:29.781Z,29.59
2023-03-13T03:42:29.769Z,31.41
2023-03-13T03:43:29.749Z,31.88
2023-03-13T03:44:29.725Z,29.68
2023-03-13T03:45:29.770Z,30.07
2023-03-13T03:46:29.689Z,32.42
2023-03-13T03:47:29.716Z,29.52
2023-03-13T03:48:29.665Z,27.51
2023-03-13T03:49:29.645Z,30.92
2023-03-13T03:50:29.625Z,30.86
2023-03-13T03:51:30.015Z,32.78
2023-03-13T03:52:29.582Z,30.13
2023-03-13T03:53:29.565Z,34.04
2023-03-13T03:54:29.542Z,32.31
2023-03-13T03:55:29.524Z,29.20
2023-03-13T03:56:29.502Z,29.74
2023-03-13T03:57:29.487Z,29.24
2023-03-13T03:58:29.455Z,32.96
2023-03-13T03:59:29.440Z,33.02
2023-03-13T04:00:29.414Z,31.86
2023-03-13T04:01:29.390Z,30.63
2023-03-13T04:02:29.433Z,29.59
2023-03-13T04:03:29.458Z,29.24
2023-03-13T04:04:29.340Z,33.61
2023-03-13T04:05:29.308Z,32.39
2023-03-13T04:06:29.292Z,29.94
2023-03-13T04:07:29.311Z,29.70
2023-03-13T04:08:29.251Z,30.29
2023-03-13T04:09:31.846Z,30.50
2023-03-13T04:10:29.211Z,30.72
2023-03-13T04:11:29.183Z,31.11
2023-03-13T04:12:29.164Z,32.07
2023-03-13T04:13:29.157Z,30.74
2023-03-13T04:14:29.130Z,31.05
2023-03-13T04:15:29.109Z,35.11
2023-03-13T04:16:29.148Z,28.94
2023-03-13T04:17:29.060Z,30.32
2023-03-13T04:18:29.044Z,32.54
2023-03-13T04:19:29.025Z,33.64
2023-03-13T04:20:29.001Z,33.03
2023-03-13T04:21:28.986Z,29.63
2023-03-13T04:22:28.960Z,30.18
2023-03-13T04:23:28.972Z,32.44
2023-03-13T04:24:28.921Z,28.79
2023-03-13T04:25:28.897Z,31.63
2023-03-13T04:26:28.896Z,31.24
2023-03-13T04:27:28.866Z,32.82
2023-03-13T04:28:28.840Z,30.94
2023-03-13T04:29:28.821Z,30.79
2023-03-13T04:30:28.802Z,32.25
2023-03-13T04:31:28.780Z,30.95
2023-03-13T04:32:28.807Z,27.79
2023-03-13T04:33:28.753Z,31.14
2023-03-13T04:34:28.723Z,28.52
2023-03-13T04:35:28.734Z,31.88
2023-03-13T04:36:28.680Z,30.78
2023-03-13T04:37:28.662Z,29.13
2023-03-13T04:38:28.630Z,30.86
2023-03-13T04:39:28.638Z,28.57
2023-03-13T04:40:28.602Z,30.98
2023-03-13T04:41:28.578Z,26.86
2023-03-13T04:42:28.616Z,29.34
2023-03-13T04:43:28.543Z,30.55
2023-03-13T04:44:28.520Z,31.04
2023-03-13T04:45:28.501Z,27.79
2023-03-13T04:46:28.534Z,30.73
2023-03-13T04:47:28.484Z,31.59
2023-03-13T04:48:28.460Z,31.33
2023-03-13T04:49:28.438Z,30.87
2023-03-13T04:50:28.413Z,29.82
2023-03-13T04:51:28.397Z,33.81
2023-03-13T04:52:28.376Z,27.74
2023-03-13T04:53:28.355Z,29.83
2023-03-13T04:54:28.342Z,29.77
2023-03-13T04:55:28.344Z,28.77
2023-03-13T04:56:42.366Z,30.12
2023-03-13T04:57:28.280Z,30.69
2023-03-13T04:58:28.259Z,31.73
2023-03-13T04:59:28.236Z,31.12
2023-03-13T05:00:28.203Z,31.80
2023-03-13T05:01:28.308Z,29.13
2023-03-13T05:02:28.164Z,33.33
2023-03-13T05:03:28.162Z,32.09
2023-03-13T05:04:28.152Z,31.27
2023-03-13T05:05:28.163Z,31.93
2023-03-13T05:06:28.074Z,28.58
2023-03-13T05:07:28.054Z,31.78
2023-03-13T05:08:28.025Z,30.38
2023-03-13T05:09:28.001Z,32.62
2023-03-13T05:10:28.000Z,29.22
2023-03-13T05:11:27.981Z,30.86
2023-03-13T05:12:27.939Z,29.87
2023-03-13T05:13:27.917Z,29.77
2023-03-13T05:14:27.884Z,31.02
2023-03-13T05:15:27.877Z,30.31
2023-03-13T05:16:27.872Z,29.87
2023-03-13T05:17:27.830Z,29.60
2023-03-13T05:18:27.816Z,30.48
2023-03-13T05:19:27.778Z,28.18
2023-03-13T05:20:27.751Z,31.53
2023-03-13T05:21:27.727Z,29.94
2023-03-13T05:22:27.705Z,32.59
2023-03-13T05:23:27.734Z,31.11
2023-03-13T05:24:27.671Z,31.11
2023-03-13T05:25:27.649Z,30.39
2023-03-13T05:26:27.659Z,32.48
2023-03-13T05:27:27.634Z,31.58
2023-03-13T05:28:27.584Z,30.49
2023-03-13T05:29:27.567Z,32.45
2023-03-13T05:30:27.546Z,27.41
2023-03-13T05:31:27.605Z,32.17
2023-03-13T05:32:27.576Z,30.72
2023-03-13T05:33:27.481Z,30.28
2023-03-13T05:34:27.464Z,32.93
2023-03-13T05:35:27.539Z,33.57
2023-03-13T05:36:27.436Z,30.45
2023-03-13T05:37:27.407Z,31.94
2023-03-13T05:38:27.390Z,31.90
2023-03-13T05:39:27.368Z,31.23
2023-03-13T05:40:27.347Z,30.98
2023-03-13T05:41:27.333Z,29.52
2023-03-13T05:42:27.313Z,30.93
2023-03-13T05:43:27.323Z,32.21
2023-03-13T05:44:27.270Z,30.66
2023-03-13T05:45:27.250Z,30.80
2023-03-13T05:46:27.351Z,30.19
2023-03-13T05:47:27.200Z,30.06
2023-03-13T05:48:27.176Z,30.82
2023-03-13T05:49:27.152Z,28.95
2023-03-13T05:50:27.122Z,30.34
2023-03-13T05:51:27.098Z,32.52
2023-03-13T05:52:27.079Z,29.99
2023-03-13T05:53:27.057Z,30.71
2023-03-13T05:54:27.035Z,31.94
2023-03-13T05:55:27.021Z,30.23
2023-03-13T05:56:26.994Z,31.05
2023-03-13T05:57:26.967Z,30.62
2023-03-13T05:58:26.934Z,32.66
2023-03-13T05:59:26.940Z,29.17
2023-03-13T06:00:26.891Z,29.27
2023-03-13T06:01:26.896Z,31.28
2023-03-13T06:02:26.853Z,32.00
2023-03-13T06:03:26.871Z,30.73
2023-03-13T06:04:26.980Z,29.96
2023-03-13T06:05:26.787Z,28.66
2023-03-13T06:06:27.096Z,33.32
2023-03-13T06:07:26.735Z,29.70
2023-03-13T06:08:26.712Z,30.83
2023-03-13T06:09:26.691Z,28.94
2023-03-13T06:10:26.750Z,31.37
2023-03-13T06:11:26.652Z,28.52
2023-03-13T06:12:26.619Z,29.65
2023-03-13T06:13:26.587Z,31.04
2023-03-13T06:14:26.567Z,30.34
2023-03-13T06:15:26.596Z,30.29
2023-03-13T06:16:26.608Z,31.20
2023-03-13T06:17:26.504Z,32.02
2023-03-13T06:18:26.584Z,30.98
2023-03-13T06:19:26.576Z,31.29
2023-03-13T06:20:26.443Z,35.15
2023-03-13T06:21:26.400Z,32.95
2023-03-13T06:22:26.373Z,38.54
2023-03-13T06:23:26.357Z,39.15
2023-03-13T06:24:26.343Z,40.97
2023-03-13T06:25:26.351Z,44.91
2023-03-13T06:26:26.293Z,47.56
2023-03-13T06:27:26.323Z,48.01
2023-03-13T06:28:26.251Z,48.86
2023-03-13T06:29:26.209Z,50.19
2023-03-13T06:30:26.196Z,57.52
2023-03-13T06:31:26.283Z,58.70
2023-03-13T06:32:26.715Z,61.57
2023-03-13T06:33:26.155Z,60.12
2023-03-13T06:34:26.582Z,62.33
2023-03-13T06:35:26.123Z,65.92
2023-03-13T06:36:26.106Z,70.29
2023-03-13T06:37:26.002Z,75.11
2023-03-13T06:38:25.974Z,76.06
2023-03-13T06:39:26.091Z,78.46
2023-03-13T06:40:25.918Z,80.44
2023-03-13T06:41:25.895Z,83.99
2023-03-13T06:42:25.868Z,88.31
2023-03-13T06:43:25.848Z,88.52
2023-03-13T06:44:26.131Z,87.98
2023-03-13T06:45:26.782Z,91.94
2023-03-13T06:46:25.820Z,93.31
2023-03-13T06:47:25.784Z,93.26
2023-03-13T06:48:25.722Z,94.82
2023-03-13T06:49:25.686Z,95.93
2023-03-13T06:50:26.154Z,100.52
2023-03-13T06:51:25.645Z,101.43
2023-03-13T06:52:37.447Z,100.85
2023-03-13T06:53:25.722Z,101.62
2023-03-13T06:54:25.562Z,105.61
2023-03-13T06:55:25.654Z,110.65
2023-03-13T06:56:25.502Z,121.75
2023-03-13T06:57:25.546Z,142.64
2023-03-13T06:58:32.584Z,148.34
2023-03-13T06:59:25.418Z,148.91
2023-03-13T07:00:25.410Z,151.41
2023-03-13T07:01:25.812Z,157.54
2023-03-13T07:02:25.332Z,170.78
2023-03-13T07:03:25.391Z,185.02
2023-03-13T07:04:33.014Z,192.95
2023-03-13T07:05:27.592Z,193.48
2023-03-13T07:06:26.345Z,194.19
2023-03-13T07:08:32.595Z,194.30
2023-03-13T07:09:40.747Z,194.97
2023-03-13T07:10:25.275Z,195.37
2023-03-13T07:11:25.677Z,195.75
2023-03-13T07:12:25.104Z,203.14
2023-03-13T07:13:25.075Z,217.44
2023-03-13T07:14:25.007Z,240.51
2023-03-13T07:15:25.031Z,271.21
2023-03-13T07:16:25.207Z,245.08
2023-03-13T07:17:27.117Z,248.67
2023-03-13T07:18:24.970Z,249.14
2023-03-13T07:19:24.943Z,243.65
2023-03-13T07:20:24.896Z,228.64
2023-03-13T07:21:25.246Z,215.39
2023-03-13T07:22:24.827Z,209.52
2023-03-13T07:23:24.800Z,221.90
2023-03-13T07:24:24.795Z,226.48
2023-03-13T07:25:24.756Z,233.83
2023-03-13T07:26:25.220Z,241.23
2023-03-13T07:27:24.834Z,246.99
2023-03-13T07:28:24.690Z,248.38
2023-03-13T07:29:24.654Z,250.00
2023-03-13T07:30:24.612Z,248.92
2023-03-13T07:31:24.768Z,249.79
2023-03-13T07:32:24.627Z,250.89
2023-03-13T07:33:24.526Z,250.00
2023-03-13T07:34:24.509Z,250.00
2023-03-13T07:35:24.731Z,246.90
2023-03-13T07:36:24.555Z,248.27
2023-03-13T07:37:25.137Z,242.88
2023-03-13T07:38:24.406Z,226.27
2023-03-13T07:39:24.367Z,218.72
2023-03-13T07:40:24.340Z,205.76
2023-03-13T07:41:24.287Z,195.90
2023-03-13T07:42:24.615Z,194.34
2023-03-13T07:43:24.323Z,187.79
2023-03-13T07:44:25.260Z,186.80
2023-03-13T07:45:24.213Z,185.18
2023-03-13T07:46:24.293Z,183.51
2023-03-13T07:47:24.769Z,178.38
2023-03-13T07:48:24.626Z,176.83
2023-03-13T07:49:24.147Z,180.82
2023-03-13T07:50:24.278Z,176.68
2023-03-13T07:51:36.780Z,171.04
2023-03-13T07:52:24.021Z,171.07
2023-03-13T07:53:24.166Z,167.01
2023-03-13T07:54:23.959Z,161.00
2023-03-13T07:55:23.932Z,155.03
2023-03-13T07:56:23.913Z,152.92
2023-03-13T07:57:24.122Z,151.82
2023-03-13T07:58:23.884Z,143.98
2023-03-13T07:59:23.995Z,138.44
2023-03-13T08:00:23.839Z,138.04
2023-03-13T08:01:26.054Z,136.07
2023-03-13T08:02:23.842Z,136.43
2023-03-13T08:03:23.862Z,135.64
2023-03-13T08:04:23.735Z,137.40
2023-03-13T08:05:24.174Z,136.16
2023-03-13T08:06:24.195Z,135.42
2023-03-13T08:07:23.704Z,136.05
2023-03-13T08:08:23.645Z,132.03
2023-03-13T08:09:24.596Z,131.25
2023-03-13T08:10:23.602Z,130.46
2023-03-13T08:11:23.611Z,124.77
2023-03-13T08:12:23.511Z,124.19
2023-03-13T08:13:23.485Z,124.93
2023-03-13T08:14:23.579Z,134.07
2023-03-13T08:15:23.444Z,121.51
2023-03-13T08:16:24.665Z,122.69
2023-03-13T08:17:23.389Z,127.67
2023-03-13T08:18:23.632Z,124.28
2023-03-13T08:19:23.343Z,121.68
2023-03-13T08:20:23.346Z,122.01
2023-03-13T08:21:23.310Z,124.77
2023-03-13T08:22:23.279Z,119.77
2023-03-13T08:23:23.859Z,125.11
2023-03-13T08:24:23.237Z,127.44
2023-03-13T08:25:23.206Z,122.57
2023-03-13T08:26:23.170Z,126.32
2023-03-13T08:27:23.152Z,122.02
2023-03-13T08:28:23.648Z,124.12
2023-03-13T08:29:23.083Z,123.39
2023-03-13T08:30:23.064Z,127.18
2023-03-13T08:31:23.334Z,122.73
2023-03-13T08:32:23.100Z,125.71
2023-03-13T08:33:54.783Z,124.54
2023-03-13T08:34:22.962Z,124.88
2023-03-13T08:35:22.990Z,126.53
2023-03-13T08:36:23.150Z,130.14
2023-03-13T08:37:22.878Z,130.68
2023-03-13T08:38:23.130Z,142.98
2023-03-13T08:39:22.850Z,142.72
2023-03-13T08:40:22.818Z,147.42
2023-03-13T08:41:23.142Z,148.26
2023-03-13T08:42:22.772Z,154.77
2023-03-13T08:43:22.772Z,152.48
2023-03-13T08:44:23.182Z,157.64
2023-03-13T08:45:23.136Z,156.64
2023-03-13T08:46:23.302Z,159.54
2023-03-13T08:47:22.621Z,160.17
2023-03-13T08:48:22.598Z,160.61
2023-03-13T08:49:22.533Z,150.75
2023-03-13T08:50:25.801Z,160.30
2023-03-13T08:51:22.671Z,160.33
2023-03-13T08:52:22.437Z,151.43
2023-03-13T08:53:22.427Z,158.42
2023-03-13T08:54:22.370Z,142.69
2023-03-13T08:55:23.789Z,143.09
2023-03-13T08:56:22.673Z,153.30
2023-03-13T08:57:22.277Z,146.44
2023-03-13T08:58:22.236Z,142.07
2023-03-13T08:59:23.617Z,140.51
2023-03-13T09:00:22.188Z,142.76
2023-03-13T09:01:22.137Z,156.18
2023-03-13T09:02:22.245Z,155.04
2023-03-13T09:03:22.164Z,154.79
2023-03-13T09:04:22.089Z,155.44
2023-03-13T09:05:22.127Z,157.32
2023-03-13T09:06:22.003Z,158.95
2023-03-13T09:07:21.966Z,168.84
2023-03-13T09:08:22.317Z,166.56
2023-03-13T09:09:24.249Z,166.50
2023-03-13T09:10:21.860Z,166.24
2023-03-13T09:11:22.192Z,167.92
2023-03-13T09:12:30.787Z,157.85
2023-03-13T09:13:21.765Z,158.50
2023-03-13T09:14:22.192Z,159.35
2023-03-13T09:15:21.685Z,162.66
2023-03-13T09:16:21.714Z,165.16
2023-03-13T09:17:21.611Z,162.80
2023-03-13T09:18:21.650Z,160.25
2023-03-13T09:19:21.720Z,161.50
2023-03-13T09:20:21.513Z,162.01
2023-03-13T09:21:21.459Z,170.40
2023-03-13T09:22:21.662Z,165.09
2023-03-13T09:23:21.388Z,166.27
2023-03-13T09:24:21.347Z,164.56
2023-03-13T09:25:21.306Z,166.74
2023-03-13T09:26:23.133Z,168.32
2023-03-13T09:27:21.752Z,168.51
2023-03-13T09:28:21.201Z,169.00
2023-03-13T09:29:21.145Z,170.01
2023-03-13T09:30:21.110Z,167.54
2023-03-13T09:31:21.219Z,169.00
2023-03-13T09:32:21.283Z,168.66
2023-03-13T09:33:20.977Z,170.51
2023-03-13T09:34:20.957Z,159.83
2023-03-13T09:35:20.914Z,151.46
2023-03-13T09:36:22.681Z,157.62
2023-03-13T09:37:21.359Z,157.71
2023-03-13T09:38:20.798Z,157.86
2023-03-13T09:39:20.726Z,153.80
2023-03-13T09:40:20.698Z,153.05
2023-03-13T09:41:20.654Z,158.44
2023-03-13T09:42:20.686Z,157.70
2023-03-13T09:43:20.610Z,149.22
2023-03-13T09:44:20.516Z,153.89
2023-03-13T09:45:20.482Z,153.79
2023-03-13T09:46:20.502Z,146.74
2023-03-13T09:47:20.730Z,152.00
2023-03-13T09:48:20.345Z,159.57
2023-03-13T09:49:20.675Z,157.61
2023-03-13T09:50:20.329Z,155.86
2023-03-13T09:51:20.667Z,157.29
2023-03-13T09:52:20.655Z,152.30
2023-03-13T09:53:20.114Z,153.96
2023-03-13T09:54:20.162Z,158.20
2023-03-13T09:55:20.030Z,151.35
2023-03-13T09:56:19.980Z,150.63
2023-03-13T09:57:19.944Z,155.33
2023-03-13T09:58:20.147Z,154.25
2023-03-13T09:59:19.855Z,152.53
2023-03-13T10:00:20.099Z,148.34
2023-03-13T10:01:19.808Z,157.10
2023-03-13T10:02:19.695Z,144.88
2023-03-13T10:03:20.213Z,151.52
2023-03-13T10:04:19.711Z,154.59
2023-03-13T10:05:19.563Z,160.21
2023-03-13T10:06:19.667Z,148.12
2023-03-13T10:07:19.467Z,154.91
2023-03-13T10:08:19.674Z,153.92
2023-03-13T10:09:19.350Z,152.62
2023-03-13T10:10:19.315Z,149.73
2023-03-13T10:11:19.251Z,146.55
2023-03-13T10:12:19.224Z,148.72
2023-03-13T10:13:19.154Z,150.78
2023-03-13T10:14:19.104Z,140.92
2023-03-13T10:15:19.075Z,139.91
2023-03-13T10:16:19.590Z,141.53
2023-03-13T10:17:19.032Z,137.12
2023-03-13T10:18:18.910Z,133.26
2023-03-13T10:19:18.883Z,133.06
2023-03-13T10:20:18.823Z,125.42
2023-03-13T10:21:18.783Z,123.43
2023-03-13T10:22:18.749Z,126.59
2023-03-13T10:23:19.253Z,130.81
2023-03-13T10:24:18.674Z,122.82
2023-03-13T10:25:18.629Z,124.39
2023-03-13T10:26:18.695Z,116.29
2023-03-13T10:27:18.540Z,124.37
2023-03-13T10:28:18.493Z,121.26
2023-03-13T10:29:18.703Z,109.69
2023-03-13T10:30:18.420Z,98.21
2023-03-13T10:31:18.466Z,86.75
2023-03-13T10:32:18.383Z,94.33
2023-03-13T10:33:18.304Z,96.73
2023-03-13T10:34:18.720Z,96.95
2023-03-13T10:35:19.266Z,104.05
2023-03-13T10:36:18.236Z,106.52
2023-03-13T10:37:18.155Z,104.67
2023-03-13T10:38:18.178Z,115.19
2023-03-13T10:39:18.096Z,118.79
2023-03-13T10:40:18.042Z,120.90
2023-03-13T10:41:19.029Z,117.45
2023-03-13T10:42:17.965Z,121.08
2023-03-13T10:43:20.620Z,119.52
2023-03-13T10:44:17.926Z,116.91
2023-03-13T10:45:17.891Z,111.34
2023-03-13T10:46:25.307Z,114.45
2023-03-13T10:47:18.183Z,119.82
2023-03-13T10:48:18.229Z,121.03
2023-03-13T10:49:17.728Z,122.74
2023-03-13T10:50:18.219Z,124.36
2023-03-13T10:51:17.620Z,124.91
2023-03-13T10:52:17.677Z,128.06
2023-03-13T10:53:17.527Z,128.23
2023-03-13T10:54:17.490Z,125.97
2023-03-13T10:55:17.689Z,121.16
2023-03-13T10:56:17.420Z,127.11
2023-03-13T10:57:17.690Z,131.99
2023-03-13T10:58:25.206Z,119.30
2023-03-13T10:59:17.280Z,119.80
2023-03-13T11:00:17.243Z,121.66
2023-03-13T11:01:17.220Z,123.26
2023-03-13T11:02:17.807Z,123.59
2023-03-13T11:03:17.247Z,129.83
2023-03-13T11:04:17.092Z,129.50
2023-03-13T11:05:17.053Z,134.46
2023-03-13T11:06:17.192Z,133.32
2023-03-13T11:07:17.002Z,114.08
2023-03-13T11:08:17.304Z,114.21
2023-03-13T11:09:16.931Z,119.04
2023-03-13T11:10:16.862Z,113.75
2023-03-13T11:11:17.545Z,116.14
2023-03-13T11:12:16.779Z,121.70
2023-03-13T11:13:24.748Z,122.38
2023-03-13T11:14:16.708Z,122.89
2023-03-13T11:15:16.691Z,124.58
2023-03-13T11:16:16.714Z,128.42
2023-03-13T11:17:16.573Z,129.15
2023-03-13T11:18:16.565Z,130.56
2023-03-13T11:19:16.719Z,139.23
2023-03-13T11:20:17.242Z,147.47
2023-03-13T11:21:18.574Z,148.17
2023-03-13T11:22:16.463Z,147.50
2023-03-13T11:23:16.756Z,156.28
2023-03-13T11:24:16.302Z,160.57
2023-03-13T11:25:17.833Z,163.76
2023-03-13T11:26:16.461Z,176.54
2023-03-13T11:27:16.481Z,178.12
2023-03-13T11:28:17.379Z,176.50
2023-03-13T11:29:16.718Z,164.92
2023-03-13T11:30:16.958Z,154.88
2023-03-13T11:31:16.307Z,159.46
2023-03-13T11:32:16.223Z,145.15
2023-03-13T11:33:16.205Z,147.68
2023-03-13T11:34:16.276Z,140.20
2023-03-13T11:35:16.201Z,134.25
2023-03-13T11:36:16.172Z,135.09
2023-03-13T11:37:16.047Z,127.04
2023-03-13T11:38:15.990Z,122.87
2023-03-13T11:39:16.205Z,123.09
2023-03-13T11:40:16.255Z,129.96
2023-03-13T11:41:15.957Z,137.68
2023-03-13T11:42:15.862Z,128.54
2023-03-13T11:43:25.108Z,133.81
2023-03-13T11:44:15.790Z,134.08
2023-03-13T11:45:16.238Z,136.29
2023-03-13T11:46:15.937Z,142.64
2023-03-13T11:47:15.776Z,148.30
2023-03-13T11:48:15.648Z,164.94
2023-03-13T11:49:16.776Z,169.87
2023-03-13T11:50:16.042Z,176.84
2023-03-13T11:51:20.697Z,164.98
2023-03-13T11:52:15.509Z,165.20
2023-03-13T11:53:15.491Z,165.85
2023-03-13T11:54:15.750Z,167.46
2023-03-13T11:55:16.205Z,171.11
2023-03-13T11:56:15.378Z,164.63
2023-03-13T11:57:15.725Z,150.31
2023-03-13T11:58:15.308Z,168.11
2023-03-13T11:59:15.235Z,159.54
2023-03-13T12:00:15.312Z,164.19
2023-03-13T12:01:15.314Z,145.56
2023-03-13T12:02:15.217Z,148.15
2023-03-13T12:03:15.178Z,141.57
2023-03-13T12:04:15.230Z,151.16
2023-03-13T12:05:15.100Z,160.44
2023-03-13T12:06:27.238Z,152.90
2023-03-13T12:07:14.982Z,153.64
2023-03-13T12:08:14.909Z,154.47
2023-03-13T12:09:15.221Z,156.61
2023-03-13T12:10:14.839Z,158.63
2023-03-13T12:11:14.818Z,170.64
2023-03-13T12:12:15.449Z,167.00
2023-03-13T12:13:14.740Z,166.55
2023-03-13T12:14:14.708Z,162.61
2023-03-13T12:15:16.157Z,165.90
2023-03-13T12:16:14.771Z,148.69
2023-03-13T12:17:14.674Z,161.84
2023-03-13T12:18:14.558Z,168.56
2023-03-13T12:19:14.526Z,177.54
2023-03-13T12:20:14.445Z,189.77
2023-03-13T12:21:14.778Z,188.63
2023-03-13T12:22:14.509Z,193.80
2023-03-13T12:28:19.100Z,25.00
2023-03-13T12:32:20.094Z,31.81
2023-03-13T12:36:20.606Z,45.47
2023-03-13T12:40:19.510Z,65.01
2023-03-13T12:44:19.246Z,84.92
2023-03-13T12:48:21.035Z,97.93
2023-03-13T12:52:18.982Z,95.04
2023-03-13T12:56:19.009Z,38.29
2023-03-13T13:00:19.515Z,72.83
2023-03-13T13:04:19.069Z,85.71
2023-03-13T13:08:19.511Z,103.19
2023-03-13T13:12:18.511Z,116.95
2023-03-13T13:16:18.386Z,125.50
2023-03-13T13:20:18.522Z,142.82
2023-03-13T13:24:18.440Z,154.52
2023-03-13T13:28:18.535Z,170.15
2023-03-13T13:32:18.582Z,181.91
2023-03-13T13:36:18.612Z,180.51
2023-03-13T13:40:18.590Z,181.89
2023-03-13T13:44:18.526Z,192.30
2023-03-13T13:48:18.499Z,201.77
2023-03-13T13:52:18.998Z,213.88
2023-03-13T13:56:18.504Z,218.92
2023-03-13T14:00:18.081Z,218.73
2023-03-13T14:04:18.014Z,218.20
2023-03-13T14:08:18.034Z,214.87
2023-03-13T14:12:18.032Z,213.61
2023-03-13T14:16:18.083Z,206.91
2023-03-13T14:20:18.522Z,195.99
2023-03-13T14:24:18.055Z,191.21
2023-03-13T14:28:18.525Z,185.21
2023-03-13T14:32:18.072Z,178.77
2023-03-13T14:36:17.543Z,170.25
2023-03-13T14:40:17.532Z,163.79
2023-03-13T14:44:17.255Z,151.57
2023-03-13T14:48:17.552Z,143.69
2023-03-13T14:52:17.541Z,142.36
2023-03-13T14:56:17.571Z,134.61
2023-03-13T15:00:17.586Z,129.95
2023-03-13T15:04:26.211Z,127.19
2023-03-13T15:08:17.573Z,129.79
2023-03-13T15:12:17.549Z,100.84
2023-03-13T15:16:17.152Z,96.74
2023-03-13T15:20:17.088Z,75.23
2023-03-13T15:24:17.059Z,200.51
2023-03-13T15:28:17.056Z,167.55
2023-03-13T15:32:16.554Z,202.30
2023-03-13T15:36:16.651Z,250.66
2023-03-13T15:40:16.585Z,200.26
2023-03-13T15:44:16.561Z,170.15
2023-03-13T15:48:16.035Z,152.36
2023-03-13T15:52:16.044Z,143.17
2023-03-13T15:56:16.066Z,131.83
2023-03-13T16:00:15.727Z,127.77
2023-03-13T16:04:16.091Z,123.43
2023-03-13T16:08:23.228Z,114.28
2023-03-13T16:12:15.458Z,115.52
2023-03-13T16:16:15.616Z,107.74
2023-03-13T16:20:15.581Z,103.81
2023-03-13T16:24:15.225Z,100.56
2023-03-13T16:28:15.139Z,101.73
2023-03-13T16:32:15.033Z,94.08
2023-03-13T16:36:14.960Z,86.47
2023-03-13T16:40:15.583Z,83.44
2023-03-13T16:44:14.840Z,80.84
2023-03-13T16:48:14.721Z,76.51
2023-03-13T16:52:14.627Z,73.47
2023-03-13T16:56:14.563Z,79.05
2023-03-13T17:00:14.590Z,70.36
2023-03-13T17:04:14.702Z,70.22
2023-03-13T17:08:14.738Z,68.84
2023-03-13T17:12:14.850Z,66.93
2023-03-13T17:16:14.940Z,66.46
2023-03-13T17:20:14.995Z,61.90
2023-03-13T17:24:15.141Z,61.05
2023-03-13T17:28:15.206Z,56.97
2023-03-13T17:32:16.208Z,59.40
2023-03-13T17:36:15.473Z,63.90
2023-03-13T17:40:15.470Z,54.82
2023-03-13T17:44:15.602Z,56.44
2023-03-13T17:48:15.704Z,50.53
2023-03-13T17:52:15.840Z,50.67
2023-03-13T17:56:15.916Z,43.50
2023-03-13T18:00:16.052Z,45.14
2023-03-13T18:04:16.206Z,45.98
2023-03-13T18:08:16.269Z,37.84
2023-03-13T18:12:16.398Z,39.00
2023-03-13T18:16:16.597Z,38.98
2023-03-13T18:20:16.590Z,34.26
2023-03-13T18:24:16.678Z,27.76
2023-03-13T18:28:16.803Z,37.68
2023-03-13T18:32:16.997Z,35.31
2023-03-13T18:36:17.059Z,30.17
2023-03-13T18:40:17.239Z,34.28
2023-03-13T18:44:17.308Z,35.98
2023-03-13T18:48:17.529Z,33.06
2023-03-13T18:52:17.631Z,26.70
2023-03-13T18:56:17.739Z,36.80
2023-03-13T19:00:17.949Z,34.63
2023-03-13T19:04:18.518Z,31.44
2023-03-13T19:08:18.192Z,35.48
2023-03-13T19:12:18.352Z,28.12
2023-03-13T19:16:18.632Z,38.86
2023-03-13T19:20:18.708Z,26.86
2023-03-13T19:24:18.845Z,32.51
2023-03-13T19:28:19.024Z,29.27
2023-03-13T19:32:19.027Z,33.42
2023-03-13T19:36:18.860Z,29.87
2023-03-13T19:40:18.773Z,32.29
2023-03-13T19:44:18.692Z,35.70
2023-03-13T19:48:18.592Z,30.82
2023-03-13T19:52:18.527Z,25.00
2023-03-13T19:56:18.699Z,30.45
2023-03-13T20:00:18.595Z,34.16
2023-03-13T20:04:18.531Z,30.20
2023-03-13T20:08:18.518Z,27.27
2023-03-13T20:12:18.409Z,32.00
2023-03-13T20:16:18.365Z,30.00
2023-03-13T20:20:18.308Z,28.78
2023-03-13T20:24:18.253Z,29.85
2023-03-13T20:28:18.410Z,29.08
2023-03-13T20:32:18.483Z,35.72
2023-03-13T20:36:18.262Z,30.16
2023-03-13T20:40:18.215Z,28.73
2023-03-13T20:44:18.111Z,32.08
2023-03-13T20:48:18.044Z,34.50
2023-03-13T20:52:17.989Z,25.18
2023-03-13T20:56:18.084Z,27.00
2023-03-13T21:00:18.260Z,31.01
2023-03-13T21:04:18.250Z,33.26
2023-03-13T21:08:18.143Z,36.73
2023-03-13T21:12:18.138Z,26.57